Augusta, Arkansas
Current Conditions -  °F | °C
As of 3:56 AM on Monday 22 Dec 2014 (Local Time) from KSRC Reporting Station
Overcast Overcast  
Wind Chill: 44°   Ceiling: 1100
Heat Index: 47°   Visibility: 10mi
Dew Point: 44°   Wind: 7mph
Humidity: 90%   Direction: 170°S
Pressure: 29.82"   Gusts: NA
Location:  35.28°N, 91.37°W
Report Text: KSRC 220956Z AUTO 17006KT 10SM OVC011 08/07 A2982 RMK AO2 CIG 009V013 SLP105 T00830067 TSNO
Loading
Personal Weather Stations






























Interactive Weather Map New forecast layout! Learn more

10-Day Weather Forecast

Advertisements
Track Severe Weather on mobile